createdAt,value
2018-09-18T00:01:58.076Z,16.44
2018-09-18T00:04:27.019Z,16.38
2018-09-18T00:06:55.951Z,16.42
2018-09-18T00:09:24.875Z,16.31
2018-09-18T00:11:54.155Z,16.59
2018-09-18T00:14:23.436Z,16.32
2018-09-18T00:16:52.461Z,16.26
2018-09-18T00:19:21.394Z,16.21
2018-09-18T00:21:50.283Z,16.58
2018-09-18T00:24:19.243Z,16.57
2018-09-18T00:26:48.171Z,16.36
2018-09-18T00:29:17.433Z,16.55
2018-09-18T00:31:47.485Z,16.55
2018-09-18T00:34:16.426Z,16.26
2018-09-18T00:36:45.321Z,16.03
2018-09-18T00:39:14.296Z,16.06
2018-09-18T00:41:43.224Z,16.45
2018-09-18T00:44:12.104Z,16.25
2018-09-18T00:46:41.013Z,16.39
2018-09-18T00:49:09.960Z,16.33
2018-09-18T00:51:38.918Z,16.15
2018-09-18T00:54:08.007Z,15.96
2018-09-18T00:56:36.965Z,16.07
2018-09-18T00:59:06.051Z,15.90
2018-09-18T01:01:35.073Z,15.89
2018-09-18T01:04:04.106Z,15.76
2018-09-18T01:06:33.078Z,15.86
2018-09-18T01:09:02.046Z,15.98
2018-09-18T01:11:31.092Z,15.83
2018-09-18T01:14:00.142Z,15.85
2018-09-18T01:16:29.151Z,15.82
2018-09-18T01:18:58.058Z,15.72
2018-09-18T01:21:27.000Z,15.86
2018-09-18T01:23:55.869Z,15.79
2018-09-18T01:26:24.930Z,15.77
2018-09-18T01:28:54.042Z,15.66
2018-09-18T01:31:23.063Z,15.71
2018-09-18T01:33:52.317Z,15.63
2018-09-18T01:36:21.213Z,15.68
2018-09-18T01:38:50.109Z,15.69
2018-09-18T01:41:19.055Z,15.61
2018-09-18T01:43:48.041Z,15.56
2018-09-18T01:46:16.907Z,15.59
2018-09-18T01:48:45.961Z,15.60
2018-09-18T01:51:14.886Z,15.67
2018-09-18T01:53:43.949Z,15.83
2018-09-18T01:56:12.915Z,15.85
2018-09-18T01:58:41.934Z,15.79
2018-09-18T02:01:11.192Z,15.82
2018-09-18T02:03:40.251Z,15.99
2018-09-18T02:06:09.275Z,15.90
2018-09-18T02:08:38.170Z,15.51
2018-09-18T02:11:07.186Z,15.75
2018-09-18T02:13:36.460Z,15.59
2018-09-18T02:16:05.992Z,15.56
2018-09-18T02:18:34.896Z,15.63
2018-09-18T02:21:04.647Z,15.48
2018-09-18T02:23:33.913Z,15.50
2018-09-18T02:26:02.790Z,15.59
2018-09-18T02:28:31.895Z,15.38
2018-09-18T02:31:01.147Z,15.37
2018-09-18T02:33:30.068Z,15.40
2018-09-18T02:35:58.971Z,15.44
2018-09-18T02:38:27.881Z,15.21
2018-09-18T02:40:56.809Z,15.22
2018-09-18T02:43:25.714Z,15.30
2018-09-18T02:45:54.648Z,15.02
2018-09-18T02:48:23.500Z,15.01
2018-09-18T02:50:52.401Z,14.98
2018-09-18T02:53:21.362Z,14.97
2018-09-18T02:55:50.309Z,14.93
2018-09-18T02:58:19.203Z,15.07
2018-09-18T03:00:48.082Z,15.00
2018-09-18T03:03:17.021Z,14.99
2018-09-18T03:05:45.999Z,15.06
2018-09-18T03:08:15.239Z,15.10
2018-09-18T03:10:44.096Z,15.26
2018-09-18T03:13:13.009Z,15.13
2018-09-18T03:15:41.937Z,15.02
2018-09-18T03:18:10.967Z,15.02
2018-09-18T03:20:39.913Z,15.11
2018-09-18T03:23:09.378Z,14.93
2018-09-18T03:25:38.272Z,15.22
2018-09-18T03:28:07.162Z,15.21
2018-09-18T03:30:36.258Z,15.10
2018-09-18T03:33:05.185Z,15.01
2018-09-18T03:35:34.225Z,15.16
2018-09-18T03:38:03.234Z,15.14
2018-09-18T03:40:32.142Z,15.15
2018-09-18T03:43:01.116Z,15.29
2018-09-18T03:45:30.069Z,15.26
2018-09-18T03:47:59.264Z,15.19
2018-09-18T03:50:28.463Z,15.19
2018-09-18T03:52:57.391Z,15.16
2018-09-18T03:55:26.309Z,14.97
2018-09-18T03:57:55.319Z,15.10
2018-09-18T04:00:24.389Z,14.89
2018-09-18T04:02:53.412Z,15.04
2018-09-18T04:05:22.302Z,14.95
2018-09-18T04:07:51.228Z,14.85
2018-09-18T04:10:20.135Z,14.74
2018-09-18T04:12:49.109Z,15.03
2018-09-18T04:15:18.060Z,14.62
2018-09-18T04:17:46.958Z,14.77
2018-09-18T04:20:15.890Z,14.66
2018-09-18T04:22:44.784Z,14.71
2018-09-18T04:25:13.665Z,14.61
2018-09-18T04:27:42.581Z,14.64
2018-09-18T04:30:11.715Z,14.61
2018-09-18T04:32:40.731Z,14.52
2018-09-18T04:35:09.627Z,14.48
2018-09-18T04:37:38.644Z,14.49
2018-09-18T04:40:08.329Z,14.32
2018-09-18T04:42:37.266Z,14.47
2018-09-18T04:45:06.222Z,14.52
2018-09-18T04:47:35.258Z,14.47
2018-09-18T04:50:04.407Z,14.44
2018-09-18T04:52:33.490Z,14.25
2018-09-18T04:55:02.513Z,14.16
2018-09-18T04:57:31.997Z,14.12
2018-09-18T05:00:00.892Z,14.16
2018-09-18T05:02:29.781Z,14.22
2018-09-18T05:04:58.752Z,14.38
2018-09-18T05:07:27.663Z,14.26
2018-09-18T05:09:56.591Z,14.28
2018-09-18T05:12:25.751Z,14.28
2018-09-18T05:14:54.682Z,14.53
2018-09-18T05:17:23.575Z,14.40
2018-09-18T05:19:52.496Z,14.23
2018-09-18T05:22:21.569Z,14.39
2018-09-18T05:24:50.480Z,14.34
2018-09-18T05:27:19.387Z,14.33
2018-09-18T05:29:48.370Z,14.60
2018-09-18T05:32:17.399Z,14.57
2018-09-18T05:34:46.604Z,14.66
2018-09-18T05:37:15.508Z,14.47
2018-09-18T05:39:44.435Z,14.43
2018-09-18T05:42:13.439Z,14.39
2018-09-18T05:44:42.382Z,14.52
2018-09-18T05:47:11.696Z,14.50
2018-09-18T05:49:40.570Z,14.71
2018-09-18T05:52:09.493Z,14.67
2018-09-18T05:54:38.671Z,14.76
2018-09-18T05:57:07.653Z,14.85
2018-09-18T05:59:36.537Z,14.83
2018-09-18T06:02:05.816Z,14.80
2018-09-18T06:04:34.682Z,14.69
2018-09-18T06:07:03.569Z,14.78
2018-09-18T06:09:32.575Z,14.82
2018-09-18T06:12:01.439Z,14.83
2018-09-18T06:14:30.315Z,14.80
2018-09-18T06:16:59.224Z,14.92
2018-09-18T06:19:28.102Z,14.79
2018-09-18T06:21:56.957Z,14.82
2018-09-18T06:24:25.879Z,14.96
2018-09-18T06:26:54.823Z,14.96
2018-09-18T06:29:23.741Z,14.97
2018-09-18T06:31:52.640Z,14.92
2018-09-18T06:34:21.532Z,15.11
2018-09-18T06:36:50.455Z,15.13
2018-09-18T06:39:19.398Z,15.22
2018-09-18T06:41:48.293Z,15.18
2018-09-18T06:44:17.228Z,15.25
2018-09-18T06:46:46.163Z,15.24
2018-09-18T06:49:15.152Z,15.27
2018-09-18T06:51:44.115Z,15.29
2018-09-18T06:54:13.085Z,15.28
2018-09-18T06:56:42.338Z,15.34
2018-09-18T06:59:11.433Z,15.43
2018-09-18T07:01:40.385Z,15.40
2018-09-18T07:04:09.300Z,15.47
2018-09-18T07:06:38.334Z,15.52
2018-09-18T07:09:08.036Z,15.56
2018-09-18T07:11:36.992Z,15.55
2018-09-18T07:14:05.962Z,15.59
2018-09-18T07:16:34.998Z,15.65
2018-09-18T07:19:04.025Z,15.77
2018-09-18T07:21:32.920Z,15.69
2018-09-18T07:24:01.817Z,15.69
2018-09-18T07:26:30.753Z,15.79
2018-09-18T07:28:59.780Z,15.89
2018-09-18T07:31:28.690Z,16.00
2018-09-18T07:33:57.772Z,16.01
2018-09-18T07:36:26.629Z,16.01
2018-09-18T07:38:55.520Z,16.19
2018-09-18T07:41:24.846Z,16.15
2018-09-18T07:43:53.873Z,16.37
2018-09-18T07:46:22.890Z,16.29
2018-09-18T07:48:51.812Z,16.29
2018-09-18T07:51:20.681Z,16.53
2018-09-18T07:53:49.590Z,16.47
2018-09-18T07:56:18.610Z,16.65
2018-09-18T07:58:47.616Z,16.72
2018-09-18T08:01:16.845Z,16.74
2018-09-18T08:03:45.823Z,17.09
2018-09-18T08:06:14.689Z,17.17
2018-09-18T08:08:43.598Z,17.31
2018-09-18T08:11:12.549Z,17.36
2018-09-18T08:13:41.417Z,17.27
2018-09-18T08:16:10.320Z,17.56
2018-09-18T08:18:39.300Z,17.66
2018-09-18T08:21:08.194Z,17.64
2018-09-18T08:23:37.072Z,17.80
2018-09-18T08:26:06.044Z,17.87
2018-09-18T08:28:34.911Z,17.94
2018-09-18T08:31:03.810Z,18.39
2018-09-18T08:33:32.916Z,18.26
2018-09-18T08:36:01.854Z,18.45
2018-09-18T08:38:30.782Z,18.44
2018-09-18T08:40:59.742Z,18.86
2018-09-18T08:43:28.637Z,19.09
2018-09-18T08:45:57.549Z,19.39
2018-09-18T08:48:28.947Z,19.06
2018-09-18T08:50:58.239Z,19.24
2018-09-18T08:53:27.298Z,19.43
2018-09-18T08:55:56.316Z,19.24
2018-09-18T08:58:25.622Z,19.35
2018-09-18T09:00:54.573Z,19.67
2018-09-18T09:03:23.516Z,19.69
2018-09-18T09:05:52.467Z,19.42
2018-09-18T09:08:21.455Z,19.67
2018-09-18T09:10:50.374Z,19.90
2018-09-18T09:13:19.253Z,19.49
2018-09-18T09:15:48.133Z,20.23
2018-09-18T09:18:17.116Z,19.99
2018-09-18T09:20:45.991Z,20.04
2018-09-18T09:23:14.817Z,20.35
2018-09-18T09:25:43.721Z,20.18
2018-09-18T09:28:12.627Z,20.17
2018-09-18T09:30:41.578Z,20.77
2018-09-18T09:33:10.588Z,20.85
2018-09-18T09:35:39.436Z,21.14
2018-09-18T09:38:08.377Z,21.18
2018-09-18T09:40:37.254Z,21.45
2018-09-18T09:43:06.484Z,21.02
2018-09-18T09:45:35.367Z,21.15
2018-09-18T09:48:04.257Z,21.15
2018-09-18T09:50:33.140Z,21.18
2018-09-18T09:53:02.162Z,21.24
2018-09-18T09:55:31.037Z,21.66
2018-09-18T09:58:00.339Z,21.69
2018-09-18T10:00:34.489Z,21.33
2018-09-18T10:03:03.475Z,21.57
2018-09-18T10:05:32.442Z,21.59
2018-09-18T10:08:01.334Z,22.08
2018-09-18T10:10:30.361Z,21.67
2018-09-18T10:12:59.237Z,21.77
2018-09-18T10:15:28.117Z,21.97
2018-09-18T10:17:57.254Z,22.39
2018-09-18T10:20:25.982Z,22.49
2018-09-18T10:22:54.935Z,22.18
2018-09-18T10:25:23.844Z,22.21
2018-09-18T10:27:53.489Z,22.28
2018-09-18T10:30:22.520Z,22.16
2018-09-18T10:32:51.546Z,22.24
2018-09-18T10:35:20.456Z,22.34
2018-09-18T10:37:49.417Z,22.93
2018-09-18T10:40:18.367Z,23.27
2018-09-18T10:42:47.350Z,23.72
2018-09-18T10:45:16.203Z,23.42
2018-09-18T10:47:45.294Z,23.80
2018-09-18T10:50:14.202Z,24.17
2018-09-18T10:52:43.147Z,24.16
2018-09-18T10:55:12.031Z,23.77
2018-09-18T10:57:41.017Z,23.96
2018-09-18T11:00:10.092Z,23.68
2018-09-18T11:02:39.007Z,23.90
2018-09-18T11:05:07.921Z,23.70
2018-09-18T11:07:36.895Z,23.73
2018-09-18T11:10:05.966Z,24.17
2018-09-18T11:12:35.127Z,24.16
2018-09-18T11:15:04.305Z,24.01
2018-09-18T11:17:33.214Z,24.01
2018-09-18T11:20:02.262Z,23.87
2018-09-18T11:22:31.209Z,24.32
2018-09-18T11:25:00.318Z,24.79
2018-09-18T11:27:29.231Z,24.37
2018-09-18T11:29:58.106Z,24.28
2018-09-18T11:32:27.050Z,25.16
2018-09-18T11:34:55.946Z,25.34
2018-09-18T11:37:24.834Z,25.45
2018-09-18T11:39:53.809Z,25.41
2018-09-18T11:42:22.786Z,25.68
2018-09-18T11:44:51.663Z,25.48
2018-09-18T11:47:20.783Z,25.11
2018-09-18T11:49:49.692Z,25.48
2018-09-18T11:52:18.623Z,25.98
2018-09-18T11:54:47.538Z,25.99
2018-09-18T11:57:16.605Z,26.01
2018-09-18T11:59:45.376Z,26.17
2018-09-18T12:02:14.285Z,26.48
2018-09-18T12:04:43.356Z,25.96
2018-09-18T12:07:12.282Z,26.55
2018-09-18T12:09:41.466Z,26.05
2018-09-18T12:12:10.491Z,26.66
2018-09-18T12:14:39.387Z,26.51
2018-09-18T12:17:08.473Z,26.20
2018-09-18T12:19:37.303Z,26.25
2018-09-18T12:22:06.252Z,26.80
2018-09-18T12:24:35.162Z,27.15
2018-09-18T12:27:04.070Z,26.71
2018-09-18T12:29:33.097Z,26.58
2018-09-18T12:32:02.751Z,27.24
2018-09-18T12:34:31.717Z,26.86
2018-09-18T12:37:00.594Z,27.07
2018-09-18T12:39:29.517Z,27.05
2018-09-18T12:41:58.573Z,26.71
2018-09-18T12:44:27.348Z,27.16
2018-09-18T12:46:56.231Z,27.14
2018-09-18T12:49:25.280Z,27.54
2018-09-18T12:51:54.117Z,27.02
2018-09-18T12:54:23.168Z,27.46
2018-09-18T12:56:52.230Z,27.29
2018-09-18T12:59:21.169Z,27.13
2018-09-18T13:01:50.064Z,27.06
2018-09-18T13:04:19.004Z,27.44
2018-09-18T13:06:48.092Z,27.16
2018-09-18T13:09:16.977Z,27.14
2018-09-18T13:11:45.895Z,27.50
2018-09-18T13:14:14.860Z,26.98
2018-09-18T13:16:43.775Z,27.47
2018-09-18T13:19:12.838Z,27.55
2018-09-18T13:21:41.746Z,27.68
2018-09-18T13:24:10.664Z,27.72
2018-09-18T13:26:39.580Z,27.50
2018-09-18T13:29:08.620Z,27.43
2018-09-18T13:31:37.527Z,28.10
2018-09-18T13:34:06.812Z,27.76
2018-09-18T13:36:35.844Z,27.59
2018-09-18T13:39:06.220Z,27.88
2018-09-18T13:41:35.173Z,28.25
2018-09-18T13:44:04.182Z,28.53
2018-09-18T13:46:33.831Z,28.40
2018-09-18T13:49:02.731Z,28.51
2018-09-18T13:51:31.656Z,28.21
2018-09-18T13:54:00.533Z,28.26
2018-09-18T13:56:29.610Z,28.19
2018-09-18T13:58:58.398Z,28.10
2018-09-18T14:01:27.371Z,28.48
2018-09-18T14:03:56.185Z,28.24
2018-09-18T14:06:25.114Z,28.36
2018-09-18T14:08:54.060Z,28.29
2018-09-18T14:11:22.983Z,28.05
2018-09-18T14:13:51.853Z,28.33
2018-09-18T14:16:20.827Z,28.10
2018-09-18T14:18:49.778Z,28.37
2018-09-18T14:21:18.654Z,28.33
2018-09-18T14:23:47.560Z,28.58
2018-09-18T14:26:16.603Z,28.55
2018-09-18T14:28:45.408Z,28.51
2018-09-18T14:31:14.354Z,28.54
2018-09-18T14:33:43.288Z,28.53
2018-09-18T14:36:12.213Z,28.67
2018-09-18T14:38:41.135Z,28.59
2018-09-18T14:41:10.077Z,28.70
2018-09-18T14:43:39.068Z,28.71
2018-09-18T14:46:08.095Z,28.68
2018-09-18T14:48:36.974Z,28.53
2018-09-18T14:51:05.984Z,28.56
2018-09-18T14:53:35.145Z,28.47
2018-09-18T14:56:04.027Z,28.42
2018-09-18T14:58:32.912Z,28.69
2018-09-18T15:01:01.889Z,28.78
2018-09-18T15:03:30.817Z,28.48
2018-09-18T15:05:59.811Z,28.65
2018-09-18T15:08:28.747Z,28.68
2018-09-18T15:10:57.672Z,28.60
2018-09-18T15:13:27.041Z,28.56
2018-09-18T15:15:55.951Z,28.79
2018-09-18T15:18:24.874Z,28.55
2018-09-18T15:20:53.930Z,28.83
2018-09-18T15:23:22.839Z,28.86
2018-09-18T15:25:51.731Z,28.93
2018-09-18T15:28:20.674Z,28.60
2018-09-18T15:30:49.714Z,28.97
2018-09-18T15:33:18.664Z,28.61
2018-09-18T15:35:47.569Z,28.61
2018-09-18T15:38:16.624Z,28.75
2018-09-18T15:40:45.522Z,28.70
2018-09-18T15:43:14.462Z,28.73
2018-09-18T15:45:43.415Z,28.73
2018-09-18T15:48:13.357Z,28.67
2018-09-18T15:50:47.882Z,28.61
2018-09-18T15:53:19.375Z,28.73
2018-09-18T15:55:48.265Z,28.49
2018-09-18T15:58:17.155Z,28.59
2018-09-18T16:04:11.278Z,28.48
2018-09-18T16:06:40.824Z,28.24
2018-09-18T16:09:13.848Z,28.40
2018-09-18T16:11:43.373Z,28.41
2018-09-18T16:14:12.337Z,28.34
2018-09-18T16:16:46.356Z,28.30
2018-09-18T16:19:17.466Z,28.34
2018-09-18T16:24:46.099Z,28.23
2018-09-18T16:27:15.861Z,28.21
2018-09-18T16:29:44.721Z,28.19
2018-09-18T16:32:13.629Z,28.12
2018-09-18T16:34:42.534Z,28.13
2018-09-18T16:37:14.021Z,27.94
2018-09-18T16:39:42.951Z,27.84
2018-09-18T16:42:11.850Z,27.95
2018-09-18T16:47:34.135Z,27.73
2018-09-18T16:50:12.871Z,27.62
2018-09-18T16:52:41.803Z,27.56
2018-09-18T16:55:10.789Z,27.45
2018-09-18T16:57:40.663Z,27.37
2018-09-18T17:00:09.797Z,27.32
2018-09-18T17:02:38.720Z,27.22
2018-09-18T17:05:07.597Z,27.12
2018-09-18T17:07:36.521Z,27.15
2018-09-18T17:10:05.395Z,27.08
2018-09-18T17:12:34.359Z,27.00
2018-09-18T17:15:03.689Z,26.96
2018-09-18T17:17:32.637Z,26.95
2018-09-18T17:20:01.544Z,26.84
2018-09-18T17:22:34.645Z,26.78
2018-09-18T17:25:04.391Z,26.73
2018-09-18T17:27:36.920Z,26.70
2018-09-18T17:30:05.984Z,26.65
2018-09-18T17:32:34.873Z,26.60
2018-09-18T17:35:04.081Z,26.58
2018-09-18T17:37:32.956Z,26.55
2018-09-18T17:40:01.916Z,26.43
2018-09-18T17:42:30.862Z,26.45
2018-09-18T17:44:59.793Z,26.40
2018-09-18T17:47:28.751Z,26.31
2018-09-18T17:49:57.629Z,26.28
2018-09-18T17:52:26.596Z,26.24
2018-09-18T17:54:55.495Z,26.25
2018-09-18T17:57:24.476Z,26.26
2018-09-18T17:59:53.401Z,26.27
2018-09-18T18:02:22.365Z,26.22
2018-09-18T18:04:51.471Z,26.18
2018-09-18T18:07:20.351Z,26.13
2018-09-18T18:09:49.339Z,26.03
2018-09-18T18:12:18.336Z,25.91
2018-09-18T18:14:47.239Z,25.82
2018-09-18T18:17:16.173Z,25.80
2018-09-18T18:19:45.133Z,25.70
2018-09-18T18:22:14.073Z,25.64
2018-09-18T18:24:43.157Z,25.59
2018-09-18T18:27:12.062Z,25.49
2018-09-18T18:29:40.993Z,25.47
2018-09-18T18:32:09.947Z,25.37
2018-09-18T18:34:38.879Z,25.29
2018-09-18T18:37:08.102Z,25.24
2018-09-18T18:39:37.002Z,25.19
2018-09-18T18:42:05.922Z,25.20
2018-09-18T18:44:34.819Z,25.08
2018-09-18T18:47:03.720Z,25.05
2018-09-18T18:49:38.019Z,25.06
2018-09-18T18:52:07.436Z,24.95
2018-09-18T18:54:36.575Z,24.85
2018-09-18T18:57:05.841Z,24.88
2018-09-18T18:59:34.784Z,24.90
2018-09-18T19:02:03.721Z,25.03
2018-09-18T19:04:32.654Z,25.03
2018-09-18T19:07:01.640Z,24.99
2018-09-18T19:09:30.473Z,25.01
2018-09-18T19:11:59.364Z,24.91
2018-09-18T19:14:28.266Z,24.92
2018-09-18T19:16:57.195Z,24.89
2018-09-18T19:19:26.129Z,24.72
2018-09-18T19:21:55.061Z,24.69
2018-09-18T19:24:24.007Z,24.64
2018-09-18T19:26:52.900Z,24.27
2018-09-18T19:29:21.798Z,24.30
2018-09-18T19:31:50.745Z,24.19
2018-09-18T19:34:19.629Z,24.15
2018-09-18T19:36:48.541Z,24.07
2018-09-18T19:39:17.622Z,24.09
2018-09-18T19:41:46.346Z,24.02
2018-09-18T19:44:15.265Z,24.23
2018-09-18T19:46:44.171Z,24.24
2018-09-18T19:49:13.122Z,23.76
2018-09-18T19:51:42.072Z,23.70
2018-09-18T19:54:10.971Z,23.72
2018-09-18T19:56:40.012Z,23.37
2018-09-18T19:59:09.763Z,23.41
2018-09-18T20:01:38.726Z,23.26
2018-09-18T20:04:07.645Z,23.29
2018-09-18T20:06:36.577Z,23.33
2018-09-18T20:09:08.414Z,23.13
2018-09-18T20:11:37.272Z,23.16
2018-09-18T20:14:06.201Z,23.29
2018-09-18T20:16:35.090Z,23.15
2018-09-18T20:19:04.000Z,23.13
2018-09-18T20:21:32.938Z,23.15
2018-09-18T20:24:01.825Z,23.14
2018-09-18T20:26:30.868Z,23.05
2018-09-18T20:28:59.876Z,23.26
2018-09-18T20:31:28.732Z,22.84
2018-09-18T20:33:57.685Z,23.01
2018-09-18T20:36:26.694Z,23.14
2018-09-18T20:38:55.533Z,23.20
2018-09-18T20:41:24.429Z,23.12
2018-09-18T20:43:53.374Z,22.70
2018-09-18T20:46:22.308Z,23.01
2018-09-18T20:48:51.437Z,23.04
2018-09-18T20:51:20.381Z,23.02
2018-09-18T20:53:49.287Z,23.18
2018-09-18T20:56:18.213Z,23.11
2018-09-18T20:58:47.174Z,23.02
2018-09-18T21:01:16.196Z,23.18
2018-09-18T21:03:45.132Z,22.98
2018-09-18T21:06:14.041Z,22.85
2018-09-18T21:08:43.146Z,22.78
2018-09-18T21:11:12.041Z,22.84
2018-09-18T21:13:40.942Z,22.83
2018-09-18T21:16:09.866Z,22.79
2018-09-18T21:18:38.793Z,22.67
2018-09-18T21:21:07.706Z,22.53
2018-09-18T21:23:36.613Z,22.63
2018-09-18T21:26:10.762Z,22.58
2018-09-18T21:28:39.709Z,22.42
2018-09-18T21:31:08.802Z,22.55
2018-09-18T21:33:38.002Z,22.46
2018-09-18T21:36:06.953Z,22.34
2018-09-18T21:38:35.906Z,22.24
2018-09-18T21:41:04.809Z,22.32
2018-09-18T21:43:33.795Z,22.20
2018-09-18T21:46:02.720Z,22.02
2018-09-18T21:48:31.667Z,21.99
2018-09-18T21:51:00.564Z,22.00
2018-09-18T21:53:29.573Z,22.01
2018-09-18T21:55:58.474Z,22.08
2018-09-18T22:00:55.270Z,21.81
2018-09-18T22:03:24.192Z,21.84
2018-09-18T22:05:53.221Z,21.54
2018-09-18T22:08:22.288Z,21.77
2018-09-18T22:10:51.244Z,21.52
2018-09-18T22:13:20.296Z,21.40
2018-09-18T22:15:49.212Z,21.52
2018-09-18T22:18:18.180Z,21.27
2018-09-18T22:20:47.093Z,21.45
2018-09-18T22:23:16.047Z,21.12
2018-09-18T22:25:45.110Z,21.48
2018-09-18T22:28:14.012Z,21.37
2018-09-18T22:30:42.922Z,21.46
2018-09-18T22:33:11.821Z,21.38
2018-09-18T22:35:40.713Z,21.45
2018-09-18T22:38:09.764Z,21.32
2018-09-18T22:40:38.698Z,21.28
2018-09-18T22:43:07.659Z,21.26
2018-09-18T22:45:36.608Z,21.24
2018-09-18T22:48:05.834Z,21.24
2018-09-18T22:50:34.768Z,21.04
2018-09-18T22:53:03.679Z,21.03
2018-09-18T22:55:32.643Z,21.11
2018-09-18T22:58:01.581Z,20.92
2018-09-18T23:00:30.531Z,20.75
2018-09-18T23:02:59.442Z,20.88
2018-09-18T23:05:28.354Z,20.81
2018-09-18T23:07:57.253Z,20.85
2018-09-18T23:10:26.171Z,20.86
2018-09-18T23:12:55.079Z,20.78
2018-09-18T23:15:24.000Z,20.77
2018-09-18T23:17:52.879Z,20.66
2018-09-18T23:20:21.747Z,20.47
2018-09-18T23:22:50.683Z,20.70
2018-09-18T23:25:19.623Z,20.54
2018-09-18T23:27:48.546Z,20.60
2018-09-18T23:30:17.429Z,20.66
2018-09-18T23:32:46.329Z,20.57
2018-09-18T23:35:15.275Z,20.40
2018-09-18T23:37:44.137Z,20.38
2018-09-18T23:40:13.002Z,20.12
2018-09-18T23:42:41.924Z,20.14
2018-09-18T23:45:10.955Z,20.12
2018-09-18T23:47:39.845Z,20.06
2018-09-18T23:50:08.743Z,20.15
2018-09-18T23:52:38.135Z,20.33
2018-09-18T23:55:07.057Z,20.15
2018-09-18T23:57:36.121Z,20.01
